Prairie City, Iowa
Current Conditions -  °F | °C
As of 7:35 PM on Tuesday 25 Nov 2014 (Local Time) from KTNU Reporting Station
Clear Clear  
Wind Chill: -10°   Ceiling: Unl
Heat Index: -4°   Visibility: 10mi
Dew Point: -9°   Wind: 10mph
Humidity: 69%   Direction: 130°SE
Pressure: 30.06"   Gusts: NA
Location:  41.6°N, 93.24°W
Report Text: KTNU 260135Z AUTO 13009KT 10SM CLR M04/M09 A3006 RMK AO2
Loading
Personal Weather Stations






























Interactive Weather Map New forecast layout! Learn more

10-Day Weather Forecast

Advertisements
Track Severe Weather on mobile